createdAt,value
2018-07-06T00:01:00.768Z,0
2018-07-06T00:02:08.844Z,0
2018-07-06T00:03:16.904Z,0
2018-07-06T00:04:24.977Z,0
2018-07-06T00:05:33.029Z,0
2018-07-06T00:06:41.182Z,0
2018-07-06T00:07:49.157Z,0
2018-07-06T00:08:57.220Z,0
2018-07-06T00:10:05.284Z,0
2018-07-06T00:11:13.344Z,0
2018-07-06T00:12:21.422Z,0
2018-07-06T00:13:29.482Z,0
2018-07-06T00:14:37.531Z,0
2018-07-06T00:15:45.612Z,0
2018-07-06T00:16:53.645Z,0
2018-07-06T00:18:01.749Z,0
2018-07-06T00:19:09.814Z,0
2018-07-06T00:20:17.881Z,0
2018-07-06T00:21:25.935Z,0
2018-07-06T00:22:33.984Z,0
2018-07-06T00:23:42.081Z,0
2018-07-06T00:24:50.135Z,0
2018-07-06T00:25:58.217Z,0
2018-07-06T00:27:06.274Z,0
2018-07-06T00:28:14.314Z,0
2018-07-06T00:29:22.403Z,0
2018-07-06T00:30:30.475Z,0
2018-07-06T00:31:38.545Z,0
2018-07-06T00:32:46.608Z,0
2018-07-06T00:33:54.673Z,0
2018-07-06T00:35:02.738Z,0
2018-07-06T00:36:10.805Z,0
2018-07-06T00:37:18.903Z,0
2018-07-06T00:38:26.941Z,0
2018-07-06T00:39:35.008Z,0
2018-07-06T00:40:43.066Z,0
2018-07-06T00:41:51.130Z,0
2018-07-06T00:42:59.208Z,0
2018-07-06T00:44:07.266Z,0
2018-07-06T00:45:15.332Z,0
2018-07-06T00:46:23.391Z,0
2018-07-06T00:47:31.449Z,0
2018-07-06T00:48:39.521Z,0
2018-07-06T00:49:47.598Z,0
2018-07-06T00:50:55.654Z,0
2018-07-06T00:52:03.697Z,0
2018-07-06T00:53:11.793Z,0
2018-07-06T00:54:19.879Z,0
2018-07-06T00:55:27.919Z,0
2018-07-06T00:56:35.994Z,0
2018-07-06T00:57:44.022Z,0
2018-07-06T00:58:52.145Z,0
2018-07-06T01:00:00.183Z,0
2018-07-06T01:01:08.251Z,0
2018-07-06T01:02:16.322Z,0
2018-07-06T01:03:24.416Z,0
2018-07-06T01:04:32.461Z,0
2018-07-06T01:05:40.514Z,0
2018-07-06T01:06:48.593Z,0
2018-07-06T01:07:56.657Z,0
2018-07-06T01:09:04.721Z,0
2018-07-06T01:10:12.837Z,0
2018-07-06T01:11:20.856Z,0
2018-07-06T01:12:28.916Z,0
2018-07-06T01:13:36.985Z,0
2018-07-06T01:14:45.055Z,0
2018-07-06T01:15:53.119Z,0
2018-07-06T01:17:01.192Z,0
2018-07-06T01:18:09.265Z,0
2018-07-06T01:19:17.320Z,0
2018-07-06T01:20:25.396Z,0
2018-07-06T01:21:33.444Z,0
2018-07-06T01:22:41.534Z,0
2018-07-06T01:23:49.601Z,0
2018-07-06T01:24:57.676Z,0
2018-07-06T01:26:05.741Z,0
2018-07-06T01:27:13.764Z,0
2018-07-06T01:28:21.897Z,0
2018-07-06T01:29:29.929Z,0
2018-07-06T01:30:37.999Z,0
2018-07-06T01:31:46.054Z,0
2018-07-06T01:32:54.108Z,0
2018-07-06T01:34:02.200Z,0
2018-07-06T01:35:10.306Z,0
2018-07-06T01:36:18.326Z,0
2018-07-06T01:37:26.438Z,0
2018-07-06T01:38:34.458Z,0
2018-07-06T01:39:42.532Z,0
2018-07-06T01:40:50.592Z,0
2018-07-06T01:41:58.658Z,0
2018-07-06T01:43:06.725Z,0
2018-07-06T01:44:14.792Z,0
2018-07-06T01:45:22.846Z,0
2018-07-06T01:46:30.921Z,0
2018-07-06T01:47:38.980Z,0
2018-07-06T01:48:47.059Z,0
2018-07-06T01:49:55.178Z,0
2018-07-06T01:51:03.189Z,0
2018-07-06T01:52:11.261Z,0
2018-07-06T01:53:19.311Z,0
2018-07-06T01:54:27.386Z,0
2018-07-06T01:55:35.444Z,0
2018-07-06T01:56:43.492Z,0
2018-07-06T01:57:51.574Z,0
2018-07-06T01:58:59.644Z,0
2018-07-06T02:00:07.716Z,0
2018-07-06T02:01:15.769Z,0
2018-07-06T02:02:23.811Z,0
2018-07-06T02:03:31.902Z,0
2018-07-06T02:04:39.979Z,0
2018-07-06T02:05:48.038Z,0
2018-07-06T02:06:56.116Z,0
2018-07-06T02:08:04.143Z,0
2018-07-06T02:09:12.270Z,0
2018-07-06T02:10:20.307Z,0
2018-07-06T02:11:28.372Z,0
2018-07-06T02:12:36.436Z,0
2018-07-06T02:13:44.494Z,0
2018-07-06T02:14:52.569Z,0
2018-07-06T02:16:00.628Z,0
2018-07-06T02:17:08.696Z,0
2018-07-06T02:18:16.750Z,0
2018-07-06T02:19:24.836Z,0
2018-07-06T02:20:32.895Z,0
2018-07-06T02:21:40.952Z,0
2018-07-06T02:22:49.017Z,0
2018-07-06T02:23:57.095Z,0
2018-07-06T02:25:05.180Z,0
2018-07-06T02:26:13.228Z,0
2018-07-06T02:27:21.300Z,0
2018-07-06T02:28:29.363Z,0
2018-07-06T02:29:37.425Z,0
2018-07-06T02:30:45.487Z,0
2018-07-06T02:31:53.541Z,0
2018-07-06T02:33:01.625Z,0
2018-07-06T02:34:09.667Z,0
2018-07-06T02:35:17.751Z,0
2018-07-06T02:36:25.817Z,0
2018-07-06T02:37:33.863Z,0
2018-07-06T02:38:41.954Z,0
2018-07-06T02:39:50.015Z,0
2018-07-06T02:40:58.084Z,0
2018-07-06T02:42:06.152Z,0
2018-07-06T02:43:14.215Z,0
2018-07-06T02:44:22.280Z,0
2018-07-06T02:45:30.345Z,0
2018-07-06T02:46:38.415Z,0
2018-07-06T02:47:46.491Z,0
2018-07-06T02:48:54.535Z,0
2018-07-06T02:50:02.615Z,0
2018-07-06T02:51:10.692Z,0
2018-07-06T02:52:18.740Z,0
2018-07-06T02:53:26.812Z,0
2018-07-06T02:54:34.877Z,0
2018-07-06T02:55:42.933Z,0
2018-07-06T02:56:51.006Z,0
2018-07-06T02:57:59.074Z,0
2018-07-06T02:59:07.147Z,0
2018-07-06T03:00:15.211Z,0
2018-07-06T03:01:23.275Z,0
2018-07-06T03:02:31.333Z,0
2018-07-06T03:03:39.395Z,0
2018-07-06T03:04:47.477Z,0
2018-07-06T03:05:55.540Z,4
2018-07-06T03:07:03.572Z,4
2018-07-06T03:08:11.692Z,0
2018-07-06T03:09:19.742Z,4
2018-07-06T03:10:27.794Z,4
2018-07-06T03:11:35.868Z,4
2018-07-06T03:12:43.904Z,8
2018-07-06T03:13:51.997Z,8
2018-07-06T03:15:00.108Z,8
2018-07-06T03:16:08.140Z,12
2018-07-06T03:17:16.203Z,16
2018-07-06T03:18:24.243Z,12
2018-07-06T03:19:32.336Z,20
2018-07-06T03:20:40.397Z,20
2018-07-06T03:21:48.460Z,24
2018-07-06T03:22:56.530Z,28
2018-07-06T03:24:04.602Z,28
2018-07-06T03:25:12.663Z,32
2018-07-06T03:26:20.837Z,36
2018-07-06T03:27:28.797Z,44
2018-07-06T03:28:36.939Z,44
2018-07-06T03:29:44.972Z,48
2018-07-06T03:30:53.008Z,52
2018-07-06T03:32:01.077Z,56
2018-07-06T03:33:09.125Z,60
2018-07-06T03:34:17.201Z,64
2018-07-06T03:35:25.268Z,72
2018-07-06T03:36:33.332Z,76
2018-07-06T03:37:41.394Z,80
2018-07-06T03:38:49.463Z,88
2018-07-06T03:39:57.525Z,96
2018-07-06T03:41:05.598Z,96
2018-07-06T03:42:13.634Z,96
2018-07-06T03:43:21.737Z,96
2018-07-06T03:44:29.804Z,96
2018-07-06T03:45:37.865Z,96
2018-07-06T03:46:45.936Z,104
2018-07-06T03:47:53.973Z,120
2018-07-06T03:49:02.108Z,128
2018-07-06T03:50:10.129Z,128
2018-07-06T03:51:18.209Z,128
2018-07-06T03:52:26.273Z,140
2018-07-06T03:53:34.308Z,168
2018-07-06T03:54:42.399Z,188
2018-07-06T03:55:50.464Z,204
2018-07-06T03:56:58.533Z,220
2018-07-06T03:58:06.801Z,236
2018-07-06T03:59:14.867Z,256
2018-07-06T04:00:22.933Z,280
2018-07-06T04:01:31.011Z,300
2018-07-06T04:02:39.072Z,324
2018-07-06T04:03:47.139Z,344
2018-07-06T04:04:55.198Z,356
2018-07-06T04:06:03.304Z,360
2018-07-06T04:07:11.320Z,360
2018-07-06T04:08:19.402Z,360
2018-07-06T04:09:27.466Z,364
2018-07-06T04:10:35.546Z,376
2018-07-06T04:11:43.577Z,380
2018-07-06T04:12:51.673Z,380
2018-07-06T04:13:59.734Z,396
2018-07-06T04:15:07.798Z,412
2018-07-06T04:16:15.872Z,432
2018-07-06T04:17:23.901Z,468
2018-07-06T04:18:32.003Z,488
2018-07-06T04:19:40.070Z,484
2018-07-06T04:20:48.148Z,488
2018-07-06T04:21:56.200Z,516
2018-07-06T04:23:04.243Z,540
2018-07-06T04:24:12.334Z,540
2018-07-06T04:25:20.408Z,580
2018-07-06T04:26:28.537Z,616
2018-07-06T04:27:36.551Z,632
2018-07-06T04:28:44.603Z,612
2018-07-06T04:29:52.663Z,580
2018-07-06T04:31:00.748Z,552
2018-07-06T04:32:08.796Z,532
2018-07-06T04:33:16.871Z,544
2018-07-06T04:34:24.930Z,568
2018-07-06T04:35:32.999Z,580
2018-07-06T04:36:41.107Z,596
2018-07-06T04:37:49.141Z,648
2018-07-06T04:38:57.219Z,716
2018-07-06T04:40:05.294Z,784
2018-07-06T04:41:14.417Z,860
2018-07-06T04:42:21.408Z,956
2018-07-06T04:43:29.478Z,1024
2018-07-06T04:44:37.539Z,1052
2018-07-06T04:45:45.605Z,1096
2018-07-06T04:46:53.640Z,1172
2018-07-06T04:48:01.755Z,1228
2018-07-06T04:49:09.829Z,1248
2018-07-06T04:50:17.885Z,1104
2018-07-06T04:51:25.950Z,1116
2018-07-06T04:52:33.973Z,1296
2018-07-06T04:53:42.100Z,1424
2018-07-06T04:54:50.143Z,1448
2018-07-06T04:55:58.219Z,1604
2018-07-06T04:57:06.289Z,1784
2018-07-06T04:58:14.324Z,1792
2018-07-06T04:59:22.410Z,1924
2018-07-06T05:00:30.472Z,2104
2018-07-06T05:01:38.558Z,2224
2018-07-06T05:02:46.625Z,2260
2018-07-06T05:03:54.695Z,2404
2018-07-06T05:05:02.771Z,2692
2018-07-06T05:06:12.746Z,2832
2018-07-06T05:07:18.894Z,2616
2018-07-06T05:08:26.961Z,2372
2018-07-06T05:09:35.045Z,2272
2018-07-06T05:10:43.098Z,2332
2018-07-06T05:11:51.767Z,2444
2018-07-06T05:12:59.641Z,2740
2018-07-06T05:14:07.891Z,2888
2018-07-06T05:15:15.764Z,2656
2018-07-06T05:16:23.765Z,2996
2018-07-06T05:17:31.501Z,3460
2018-07-06T05:18:39.568Z,3508
2018-07-06T05:19:47.643Z,3176
2018-07-06T05:20:55.715Z,3440
2018-07-06T05:22:03.757Z,3136
2018-07-06T05:23:11.844Z,3664
2018-07-06T05:25:36.868Z,3780
2018-07-06T05:26:44.911Z,3680
2018-07-06T05:27:53.052Z,3440
2018-07-06T05:29:01.061Z,3740
2018-07-06T05:30:09.126Z,3800
2018-07-06T05:31:17.199Z,3568
2018-07-06T05:32:25.273Z,3604
2018-07-06T05:33:33.324Z,3316
2018-07-06T05:34:41.406Z,3484
2018-07-06T05:35:49.471Z,3656
2018-07-06T05:36:57.566Z,3596
2018-07-06T05:38:05.584Z,3888
2018-07-06T05:39:13.655Z,3744
2018-07-06T05:40:21.806Z,3912
2018-07-06T05:41:29.797Z,3720
2018-07-06T05:42:37.874Z,4404
2018-07-06T05:43:45.935Z,4720
2018-07-06T05:44:53.972Z,3928
2018-07-06T05:46:02.066Z,3464
2018-07-06T05:47:10.133Z,3020
2018-07-06T05:48:18.228Z,3712
2018-07-06T05:49:26.267Z,4008
2018-07-06T05:50:34.334Z,4200
2018-07-06T05:51:42.411Z,4428
2018-07-06T05:52:50.461Z,4652
2018-07-06T05:53:58.540Z,3908
2018-07-06T05:55:06.599Z,4084
2018-07-06T05:56:14.670Z,4556
2018-07-06T05:57:22.731Z,4344
2018-07-06T05:58:30.809Z,4360
2018-07-06T05:59:38.864Z,3956
2018-07-06T06:00:46.932Z,3760
2018-07-06T06:01:55.009Z,3984
2018-07-06T06:03:03.063Z,3392
2018-07-06T06:04:11.159Z,3044
2018-07-06T06:05:19.227Z,2732
2018-07-06T06:06:27.271Z,2344
2018-07-06T06:07:35.337Z,2556
2018-07-06T06:08:43.398Z,2592
2018-07-06T06:09:51.741Z,2412
2018-07-06T06:10:59.549Z,2092
2018-07-06T06:12:07.665Z,2336
2018-07-06T06:13:15.682Z,2400
2018-07-06T06:14:23.721Z,2376
2018-07-06T06:15:31.848Z,2104
2018-07-06T06:16:39.897Z,2220
2018-07-06T06:17:47.954Z,2096
2018-07-06T06:18:56.031Z,1936
2018-07-06T06:20:04.067Z,1824
2018-07-06T06:21:12.157Z,2260
2018-07-06T06:22:20.227Z,2724
2018-07-06T06:23:28.309Z,2820
2018-07-06T06:24:36.363Z,2992
2018-07-06T06:25:44.412Z,3148
2018-07-06T06:26:52.503Z,3012
2018-07-06T06:28:00.563Z,3048
2018-07-06T06:29:08.634Z,3208
2018-07-06T06:30:16.702Z,3676
2018-07-06T06:31:24.767Z,3900
2018-07-06T06:32:32.833Z,3748
2018-07-06T06:33:40.989Z,3536
2018-07-06T06:34:48.953Z,3352
2018-07-06T06:35:57.038Z,3320
2018-07-06T06:37:05.113Z,3340
2018-07-06T06:38:13.156Z,3480
2018-07-06T06:39:21.285Z,3552
2018-07-06T06:40:29.323Z,3796
2018-07-06T06:41:37.365Z,3508
2018-07-06T06:42:45.452Z,3220
2018-07-06T06:43:53.500Z,3556
2018-07-06T06:45:01.601Z,3728
2018-07-06T06:46:09.662Z,3952
2018-07-06T06:47:17.720Z,3860
2018-07-06T06:48:25.792Z,3672
2018-07-06T06:49:33.827Z,3688
2018-07-06T06:50:41.978Z,3968
2018-07-06T06:51:49.991Z,4228
2018-07-06T06:52:58.073Z,4528
2018-07-06T06:54:06.142Z,4984
2018-07-06T06:55:14.188Z,6312
2018-07-06T06:56:22.279Z,7376
2018-07-06T06:57:30.350Z,7240
2018-07-06T06:58:38.414Z,6716
2018-07-06T06:59:46.484Z,6916
2018-07-06T07:00:54.557Z,6624
2018-07-06T07:02:02.615Z,6448
2018-07-06T07:03:10.684Z,6384
2018-07-06T07:04:18.749Z,6712
2018-07-06T07:05:26.819Z,6940
2018-07-06T07:06:34.912Z,7340
2018-07-06T07:07:43.020Z,7732
2018-07-06T07:08:51.032Z,8296
2018-07-06T07:09:59.093Z,8196
2018-07-06T07:11:07.164Z,7868
2018-07-06T07:12:15.235Z,8532
2018-07-06T07:13:23.502Z,8152
2018-07-06T07:14:31.577Z,7292
2018-07-06T07:15:39.650Z,6732
2018-07-06T07:16:47.715Z,6300
2018-07-06T07:17:58.062Z,6560
2018-07-06T07:19:06.056Z,6872
2018-07-06T07:20:14.112Z,7508
2018-07-06T07:21:22.195Z,7752
2018-07-06T07:22:30.268Z,8016
2018-07-06T07:23:38.339Z,8524
2018-07-06T07:24:46.419Z,8596
2018-07-06T07:25:54.470Z,8528
2018-07-06T07:27:02.537Z,8680
2018-07-06T07:28:10.609Z,8272
2018-07-06T07:29:18.679Z,8104
2018-07-06T07:30:26.749Z,8264
2018-07-06T07:31:34.822Z,8344
2018-07-06T07:32:42.881Z,7744
2018-07-06T07:33:50.963Z,7060
2018-07-06T07:35:00.021Z,6448
2018-07-06T07:36:08.098Z,5912
2018-07-06T07:37:16.276Z,5224
2018-07-06T07:38:24.214Z,5228
2018-07-06T07:39:32.316Z,6088
2018-07-06T07:40:40.367Z,7072
2018-07-06T07:41:48.448Z,7824
2018-07-06T07:42:56.506Z,8840
2018-07-06T07:44:04.584Z,9152
2018-07-06T07:45:12.646Z,9148
2018-07-06T07:46:20.719Z,8664
2018-07-06T07:47:28.790Z,8604
2018-07-06T07:48:36.861Z,9144
2018-07-06T07:49:44.923Z,9944
2018-07-06T07:50:53.006Z,10676
2018-07-06T07:52:01.074Z,11880
2018-07-06T07:53:09.141Z,13216
2018-07-06T07:54:19.829Z,14460
2018-07-06T07:55:27.894Z,15476
2018-07-06T07:56:35.954Z,16364
2018-07-06T07:57:44.007Z,17080
2018-07-06T07:58:52.094Z,17144
2018-07-06T08:00:00.173Z,16168
2018-07-06T08:01:08.356Z,14684
2018-07-06T08:02:16.308Z,14096
2018-07-06T08:03:24.346Z,13412
2018-07-06T08:04:32.450Z,12672
2018-07-06T08:05:40.533Z,12588
2018-07-06T08:06:48.584Z,12472
2018-07-06T08:07:56.652Z,12804
2018-07-06T08:09:04.724Z,12592
2018-07-06T08:10:12.890Z,11860
2018-07-06T08:11:20.854Z,10540
2018-07-06T08:12:28.994Z,9416
2018-07-06T08:13:37.002Z,8512
2018-07-06T08:14:45.270Z,7860
2018-07-06T08:15:53.348Z,7696
2018-07-06T08:17:01.433Z,7296
2018-07-06T08:18:09.497Z,7040
2018-07-06T08:19:17.565Z,7000
2018-07-06T08:20:25.638Z,6908
2018-07-06T08:21:33.677Z,6736
2018-07-06T08:22:41.768Z,6636
2018-07-06T08:23:49.839Z,6608
2018-07-06T08:24:57.897Z,6520
2018-07-06T08:26:05.986Z,6648
2018-07-06T08:27:14.021Z,6620
2018-07-06T08:28:23.232Z,6488
2018-07-06T08:29:30.208Z,6596
2018-07-06T08:30:38.268Z,6700
2018-07-06T08:31:46.317Z,7504
2018-07-06T08:32:54.396Z,8952
2018-07-06T08:34:02.474Z,10168
2018-07-06T08:35:10.541Z,11136
2018-07-06T08:36:18.631Z,11788
2018-07-06T08:37:26.681Z,12648
2018-07-06T08:38:34.742Z,13232
2018-07-06T08:39:42.832Z,13040
2018-07-06T08:40:50.888Z,12720
2018-07-06T08:41:58.968Z,12476
2018-07-06T08:43:07.038Z,13468
2018-07-06T08:44:15.114Z,14452
2018-07-06T08:45:23.166Z,15116
2018-07-06T08:46:31.248Z,15816
2018-07-06T08:47:39.338Z,16744
2018-07-06T08:48:47.382Z,17824
2018-07-06T08:49:55.464Z,18688
2018-07-06T08:51:03.512Z,19328
2018-07-06T08:52:11.601Z,20128
2018-07-06T08:53:19.678Z,21280
2018-07-06T08:54:27.745Z,22784
2018-07-06T08:55:35.798Z,24384
2018-07-06T08:56:43.852Z,26080
2018-07-06T08:57:51.960Z,24416
2018-07-06T08:59:00.044Z,24512
2018-07-06T09:00:08.095Z,29408
2018-07-06T09:01:16.164Z,20832
2018-07-06T09:02:24.216Z,16296
2018-07-06T09:03:32.306Z,14272
2018-07-06T09:04:40.404Z,7728
2018-07-06T09:05:48.449Z,7008
2018-07-06T09:06:56.520Z,7580
2018-07-06T09:08:04.603Z,7588
2018-07-06T09:09:12.657Z,8284
2018-07-06T09:10:20.733Z,7788
2018-07-06T09:11:28.800Z,6932
2018-07-06T09:12:36.886Z,6224
2018-07-06T09:13:44.946Z,5116
2018-07-06T09:14:53.030Z,4516
2018-07-06T09:16:01.102Z,4636
2018-07-06T09:17:09.166Z,5060
2018-07-06T09:18:17.226Z,5924
2018-07-06T09:19:25.340Z,7448
2018-07-06T09:20:33.542Z,9848
2018-07-06T09:21:41.451Z,13008
2018-07-06T09:22:49.525Z,15672
2018-07-06T09:23:57.597Z,15904
2018-07-06T09:25:05.664Z,14376
2018-07-06T09:26:13.912Z,14124
2018-07-06T09:27:21.798Z,13428
2018-07-06T09:28:29.929Z,12428
2018-07-06T09:29:37.936Z,11856
2018-07-06T09:30:46.017Z,11608
2018-07-06T09:31:54.060Z,10132
2018-07-06T09:33:02.160Z,7496
2018-07-06T09:34:10.230Z,5448
2018-07-06T09:35:18.281Z,5160
2018-07-06T09:36:26.509Z,6296
2018-07-06T09:37:34.419Z,8688
2018-07-06T09:38:42.500Z,10744
2018-07-06T09:39:50.586Z,12664
2018-07-06T09:40:58.642Z,12140
2018-07-06T09:42:06.711Z,12244
2018-07-06T09:43:14.934Z,16264
2018-07-06T09:44:22.862Z,20960
2018-07-06T09:45:30.957Z,24256
2018-07-06T09:46:39.017Z,24640
2018-07-06T09:47:47.067Z,22592
2018-07-06T09:48:55.147Z,19744
2018-07-06T09:50:03.214Z,17036
2018-07-06T09:51:11.297Z,13856
2018-07-06T09:52:19.363Z,10904
2018-07-06T09:53:27.424Z,10004
2018-07-06T09:54:35.496Z,9088
2018-07-06T09:55:43.554Z,10436
2018-07-06T09:56:51.633Z,12136
2018-07-06T09:57:59.726Z,13100
2018-07-06T09:59:07.773Z,14880
2018-07-06T10:00:15.861Z,15268
2018-07-06T10:01:23.898Z,15756
2018-07-06T10:02:31.995Z,17004
2018-07-06T10:03:40.055Z,18400
2018-07-06T10:04:48.141Z,18528
2018-07-06T10:05:56.319Z,18400
2018-07-06T10:07:04.248Z,18368
2018-07-06T10:08:12.369Z,17952
2018-07-06T10:09:20.414Z,16876
2018-07-06T10:10:28.493Z,15660
2018-07-06T10:11:36.562Z,14928
2018-07-06T10:12:44.631Z,14296
2018-07-06T10:13:52.705Z,13420
2018-07-06T10:15:00.781Z,13144
2018-07-06T10:16:08.857Z,13748
2018-07-06T10:17:16.918Z,13660
2018-07-06T10:18:24.992Z,13436
2018-07-06T10:19:33.205Z,13536
2018-07-06T10:20:41.133Z,14004
2018-07-06T10:21:49.215Z,14300
2018-07-06T10:22:57.278Z,14684
2018-07-06T10:24:05.343Z,14824
2018-07-06T10:25:13.412Z,15132
2018-07-06T10:26:21.483Z,15692
2018-07-06T10:27:29.631Z,16488
2018-07-06T10:28:37.636Z,17536
2018-07-06T10:29:45.698Z,18400
2018-07-06T10:30:53.758Z,19040
2018-07-06T10:32:01.848Z,19360
2018-07-06T10:33:09.998Z,19616
2018-07-06T10:34:17.975Z,19968
2018-07-06T10:35:26.057Z,20416
2018-07-06T10:36:34.109Z,21376
2018-07-06T10:37:42.193Z,22208
2018-07-06T10:38:50.272Z,23968
2018-07-06T10:39:58.389Z,24992
2018-07-06T10:41:06.416Z,26400
2018-07-06T10:42:15.631Z,26592
2018-07-06T10:43:39.501Z,25920
2018-07-06T10:44:32.260Z,24608
2018-07-06T10:45:40.297Z,23808
2018-07-06T10:46:48.366Z,23424
2018-07-06T10:47:56.452Z,22912
2018-07-06T10:49:04.522Z,20864
2018-07-06T10:50:12.590Z,18432
2018-07-06T10:51:20.675Z,16004
2018-07-06T10:52:28.768Z,13812
2018-07-06T10:53:36.812Z,11748
2018-07-06T10:54:44.882Z,10344
2018-07-06T10:55:52.955Z,9972
2018-07-06T10:57:02.083Z,10516
2018-07-06T10:58:09.093Z,11268
2018-07-06T10:59:17.202Z,11144
2018-07-06T11:00:25.224Z,10236
2018-07-06T11:01:33.302Z,8880
2018-07-06T11:02:41.374Z,7416
2018-07-06T11:03:49.456Z,6676
2018-07-06T11:04:57.580Z,6640
2018-07-06T11:06:05.593Z,7064
2018-07-06T11:07:13.645Z,7624
2018-07-06T11:08:21.747Z,8260
2018-07-06T11:09:29.799Z,8940
2018-07-06T11:10:37.887Z,9780
2018-07-06T11:11:45.952Z,10548
2018-07-06T11:12:53.992Z,11024
2018-07-06T11:14:02.094Z,11336
2018-07-06T11:15:10.165Z,11636
2018-07-06T11:16:18.251Z,11928
2018-07-06T11:17:26.319Z,12132
2018-07-06T11:18:34.373Z,12208
2018-07-06T11:19:42.458Z,12340
2018-07-06T11:20:50.530Z,12292
2018-07-06T11:21:58.594Z,11944
2018-07-06T11:23:06.680Z,11380
2018-07-06T11:24:14.758Z,10800
2018-07-06T11:25:22.860Z,10440
2018-07-06T11:26:30.886Z,10088
2018-07-06T11:27:38.953Z,9764
2018-07-06T11:28:47.034Z,9416
2018-07-06T11:29:55.358Z,8960
2018-07-06T11:31:03.182Z,8332
2018-07-06T11:32:11.281Z,7892
2018-07-06T11:33:19.320Z,8148
2018-07-06T11:34:27.384Z,9420
2018-07-06T11:35:35.455Z,10980
2018-07-06T11:36:43.520Z,11976
2018-07-06T11:37:51.637Z,12428
2018-07-06T11:38:59.669Z,12824
2018-07-06T11:40:07.735Z,13180
2018-07-06T11:41:15.811Z,13440
2018-07-06T11:42:23.855Z,13560
2018-07-06T11:43:31.953Z,13560
2018-07-06T11:44:40.027Z,13584
2018-07-06T11:45:48.097Z,13672
2018-07-06T11:46:56.165Z,13788
2018-07-06T11:48:04.213Z,13972
2018-07-06T11:49:12.315Z,14164
2018-07-06T11:50:20.447Z,14332
2018-07-06T11:51:28.461Z,14420
2018-07-06T11:52:36.534Z,14384
2018-07-06T11:53:44.609Z,14256
2018-07-06T11:54:52.663Z,14124
2018-07-06T11:56:00.777Z,14148
2018-07-06T11:57:08.810Z,14428
2018-07-06T11:58:16.990Z,14808
2018-07-06T11:59:24.941Z,15092
2018-07-06T12:00:33.020Z,15332
2018-07-06T12:01:41.104Z,15548
2018-07-06T12:02:49.169Z,15828
2018-07-06T12:03:57.293Z,16092
2018-07-06T12:05:11.578Z,16280
2018-07-06T12:06:13.381Z,16336
2018-07-06T12:07:21.456Z,16408
2018-07-06T12:08:29.529Z,16628
2018-07-06T12:09:37.632Z,16984
2018-07-06T12:10:45.678Z,18144
2018-07-06T12:11:53.720Z,19008
2018-07-06T12:13:01.829Z,19360
2018-07-06T12:14:09.881Z,19872
2018-07-06T12:15:17.954Z,20352
2018-07-06T12:16:26.027Z,21248
2018-07-06T12:17:34.072Z,21792
2018-07-06T12:18:44.809Z,21920
2018-07-06T12:19:52.864Z,21408
2018-07-06T12:21:00.945Z,19808
2018-07-06T12:22:09.010Z,17728
2018-07-06T12:23:17.090Z,15732
2018-07-06T12:24:25.143Z,14592
2018-07-06T12:25:33.230Z,14300
2018-07-06T12:26:41.291Z,14084
2018-07-06T12:27:49.375Z,14332
2018-07-06T12:28:57.440Z,14616
2018-07-06T12:30:05.528Z,14688
2018-07-06T12:31:13.559Z,15040
2018-07-06T12:32:21.662Z,16060
2018-07-06T12:33:29.735Z,16776
2018-07-06T12:34:37.795Z,17696
2018-07-06T12:35:45.896Z,19424
2018-07-06T12:36:53.956Z,21696
2018-07-06T12:38:02.024Z,22496
2018-07-06T12:39:10.096Z,22944
2018-07-06T12:40:18.157Z,25184
2018-07-06T12:41:26.315Z,28928
2018-07-06T12:42:34.297Z,30528
2018-07-06T12:43:42.378Z,29952
2018-07-06T12:44:50.459Z,29088
2018-07-06T12:45:58.537Z,29088
2018-07-06T12:47:08.047Z,27168
2018-07-06T12:48:16.089Z,25600
2018-07-06T12:49:24.139Z,25120
2018-07-06T12:50:32.232Z,24288
2018-07-06T12:51:40.344Z,22880
2018-07-06T12:52:48.388Z,21280
2018-07-06T12:53:56.461Z,19648
2018-07-06T12:55:04.518Z,18240
2018-07-06T12:56:12.595Z,15132
2018-07-06T12:57:20.665Z,13560
2018-07-06T12:58:28.777Z,13712
2018-07-06T12:59:36.818Z,13712
2018-07-06T13:00:44.892Z,11476
2018-07-06T13:01:52.972Z,11304
2018-07-06T13:03:01.032Z,12464
2018-07-06T13:04:09.124Z,15708
2018-07-06T13:05:17.180Z,17600
2018-07-06T13:06:25.267Z,20192
2018-07-06T13:07:33.333Z,20512
2018-07-06T13:08:41.411Z,20096
2018-07-06T13:09:49.486Z,18560
2018-07-06T13:10:57.557Z,18944
2018-07-06T13:12:05.649Z,20320
2018-07-06T13:13:13.676Z,20256
2018-07-06T13:14:21.784Z,19232
2018-07-06T13:15:29.856Z,18112
2018-07-06T13:16:37.934Z,17408
2018-07-06T13:17:46.004Z,17056
2018-07-06T13:18:54.052Z,18432
2018-07-06T13:20:02.153Z,19744
2018-07-06T13:21:10.239Z,18272
2018-07-06T13:22:18.296Z,17152
2018-07-06T13:23:26.379Z,17088
2018-07-06T13:24:34.451Z,18048
2018-07-06T13:25:42.529Z,19072
2018-07-06T13:26:50.604Z,19744
2018-07-06T13:27:58.690Z,20960
2018-07-06T13:29:06.745Z,23136
2018-07-06T13:30:14.818Z,23136
2018-07-06T13:31:22.890Z,21696
2018-07-06T13:32:30.980Z,19328
2018-07-06T13:33:39.132Z,17344
2018-07-06T13:34:47.140Z,15904
2018-07-06T13:35:55.212Z,16436
2018-07-06T13:37:03.286Z,16896
2018-07-06T13:38:11.361Z,16576
2018-07-06T13:39:19.452Z,16168
2018-07-06T13:40:27.511Z,17472
2018-07-06T13:41:35.617Z,17632
2018-07-06T13:42:43.625Z,16492
2018-07-06T13:43:51.726Z,16796
2018-07-06T13:44:59.808Z,17824
2018-07-06T13:46:07.886Z,18848
2018-07-06T13:47:16.031Z,18912
2018-07-06T13:48:27.662Z,18368
2018-07-06T13:49:38.961Z,18176
2018-07-06T13:50:48.234Z,17568
2018-07-06T13:53:04.407Z,15936
2018-07-06T13:54:12.452Z,15392
2018-07-06T13:55:20.527Z,13872
2018-07-06T13:56:28.608Z,12112
2018-07-06T13:57:36.682Z,9324
2018-07-06T13:58:44.764Z,7304
2018-07-06T13:59:52.817Z,6076
2018-07-06T14:01:00.897Z,5284
2018-07-06T14:02:08.971Z,4800
2018-07-06T14:03:17.044Z,4344
2018-07-06T14:04:25.125Z,4192
2018-07-06T14:05:33.210Z,4084
2018-07-06T14:06:41.260Z,3720
2018-07-06T14:07:49.335Z,3480
2018-07-06T14:08:57.401Z,3316
2018-07-06T14:10:05.483Z,3344
2018-07-06T14:11:13.533Z,3480
2018-07-06T14:12:21.623Z,3496
2018-07-06T14:13:29.696Z,3392
2018-07-06T14:14:37.800Z,3712
2018-07-06T14:15:45.837Z,4060
2018-07-06T14:16:53.881Z,3636
2018-07-06T14:18:01.988Z,3284
2018-07-06T14:19:10.063Z,3172
2018-07-06T14:20:18.133Z,3044
2018-07-06T14:21:26.191Z,3076
2018-07-06T14:22:34.307Z,3172
2018-07-06T14:23:42.336Z,3168
2018-07-06T14:24:50.419Z,3404
2018-07-06T14:25:58.501Z,4184
2018-07-06T14:27:06.551Z,5420
2018-07-06T14:28:14.629Z,6864
2018-07-06T14:29:22.697Z,8368
2018-07-06T14:30:30.761Z,10556
2018-07-06T14:31:38.835Z,13544
2018-07-06T14:32:46.909Z,16960
2018-07-06T14:33:54.996Z,18720
2018-07-06T14:35:03.062Z,19424
2018-07-06T14:36:11.128Z,19264
2018-07-06T14:37:19.192Z,19776
2018-07-06T14:38:33.533Z,20736
2018-07-06T14:39:35.343Z,18848
2018-07-06T14:40:43.394Z,16992
2018-07-06T14:41:51.498Z,15120
2018-07-06T14:42:59.547Z,18912
2018-07-06T14:44:07.637Z,19360
2018-07-06T14:45:15.707Z,20096
2018-07-06T14:46:23.746Z,19744
2018-07-06T14:47:31.852Z,19808
2018-07-06T14:48:39.925Z,20768
2018-07-06T14:49:47.985Z,20640
2018-07-06T14:50:56.058Z,20448
2018-07-06T14:52:04.115Z,21056
2018-07-06T14:53:12.221Z,21312
2018-07-06T14:54:20.298Z,21568
2018-07-06T14:55:28.371Z,22016
2018-07-06T14:56:36.436Z,20448
2018-07-06T14:57:44.504Z,20768
2018-07-06T14:58:52.570Z,20416
2018-07-06T15:00:04.891Z,21344
2018-07-06T15:01:18.014Z,21600
2018-07-06T15:02:25.664Z,22240
2018-07-06T15:03:37.777Z,21632
2018-07-06T15:05:53.892Z,18560
2018-07-06T15:07:05.637Z,19232
2018-07-06T15:08:13.679Z,18496
2018-07-06T15:09:21.790Z,19328
2018-07-06T15:10:35.711Z,16540
2018-07-06T15:11:43.735Z,16016
2018-07-06T15:12:51.878Z,15824
2018-07-06T15:13:59.909Z,15824
2018-07-06T15:15:07.975Z,15828
2018-07-06T15:16:16.059Z,15224
2018-07-06T15:17:24.104Z,14788
2018-07-06T15:18:32.201Z,13384
2018-07-06T15:19:40.275Z,10600
2018-07-06T15:20:48.347Z,8672
2018-07-06T15:21:56.418Z,6796